Time;durP1;ratioP1;P1;durP2;ratioP2;P2;SDS_P1;SDS_P2;PMS_P1;PMS_P2;Temp;Humidity;BMP_temperature;BMP_pressure;BME280_temperature;BME280_humidity;BME280_pressure;Samples;Min_cycle;Max_cycle;Signal;HPM_P1;HPM_P2
2022/07/04 00:00:12;;;;;;;1.40;0.93;;;;;;;19.28;100.00;98843.09;5003918;28;20476;-68
2022/07/04 00:02:40;;;;;;;1.35;0.73;;;;;;;19.18;100.00;98854.81;5008629;28;20045;-68
2022/07/04 00:05:09;;;;;;;1.13;0.95;;;;;;;19.38;100.00;98854.16;5001887;28;20038;-68
2022/07/04 00:07:35;;;;;;;2.72;0.90;;;;;;;19.21;100.00;98847.97;5004108;28;20036;-68
2022/07/04 00:10:01;;;;;;;2.15;1.10;;;;;;;19.26;100.00;98865.31;5001938;28;20124;-68
2022/07/04 00:12:26;;;;;;;1.88;0.80;;;;;;;19.26;100.00;98861.75;5009386;28;20109;-68
2022/07/04 00:14:51;;;;;;;5.55;1.00;;;;;;;19.26;100.00;98851.59;5006227;28;20040;-68
2022/07/04 00:17:17;;;;;;;1.88;0.82;;;;;;;19.41;97.36;98853.66;4998391;28;20021;-68
2022/07/04 00:19:42;;;;;;;1.55;0.93;;;;;;;19.32;100.00;98837.94;4998898;28;20025;-68
2022/07/04 00:22:07;;;;;;;3.55;0.90;;;;;;;19.48;100.00;98854.25;5006729;28;20487;-68
2022/07/04 00:24:32;;;;;;;2.95;0.90;;;;;;;19.45;100.00;98848.47;5010119;28;20021;-68
2022/07/04 00:26:58;;;;;;;2.08;1.55;;;;;;;19.39;100.00;98842.13;5006463;28;20025;-68
2022/07/04 00:29:23;;;;;;;3.42;0.80;;;;;;;19.35;100.00;98849.19;5006823;28;20447;-68
2022/07/04 00:31:49;;;;;;;1.52;0.90;;;;;;;19.34;100.00;98839.31;5007696;28;20459;-68
2022/07/04 00:34:14;;;;;;;3.60;1.00;;;;;;;19.30;100.00;98835.44;5005896;28;20076;-68
2022/07/04 00:36:39;;;;;;;3.20;1.10;;;;;;;19.31;99.66;98847.22;5004057;28;20598;-68
2022/07/04 00:39:04;;;;;;;4.47;1.40;;;;;;;19.31;99.17;98856.31;5007575;28;20026;-68
2022/07/04 00:41:30;;;;;;;1.40;1.00;;;;;;;19.36;97.89;98850.88;5010693;28;20030;-68
2022/07/04 00:44:03;;;;;;;3.83;1.10;;;;;;;19.43;97.43;98862.44;5010466;28;20036;-68
2022/07/04 00:46:29;;;;;;;1.52;0.70;;;;;;;19.44;95.40;98853.16;5007677;28;20044;-68
2022/07/04 00:48:54;;;;;;;5.18;0.80;;;;;;;19.45;94.91;98848.47;5008973;28;20403;-68
2022/07/04 00:51:20;;;;;;;2.67;1.05;;;;;;;19.40;95.16;98848.44;5013517;28;20480;-68
2022/07/04 00:53:45;;;;;;;4.30;1.02;;;;;;;19.43;95.75;98856.97;5014178;28;20057;-68
2022/07/04 00:56:10;;;;;;;1.73;0.88;;;;;;;19.40;94.86;98871.19;5012270;28;20026;-68
2022/07/04 00:58:37;;;;;;;1.70;0.90;;;;;;;19.39;94.81;98860.50;5011463;28;20087;-68
2022/07/04 01:01:02;;;;;;;3.08;1.10;;;;;;;19.38;95.42;98870.63;5003553;28;20033;-68
2022/07/04 01:03:28;;;;;;;2.20;1.08;;;;;;;19.33;97.69;98867.81;5010723;28;20557;-68
2022/07/04 01:05:53;;;;;;;4.70;1.15;;;;;;;19.28;98.90;98865.03;5012800;28;20030;-68
2022/07/04 01:08:19;;;;;;;5.13;1.02;;;;;;;19.23;99.94;98859.50;5008515;28;20114;-68
2022/07/04 01:10:44;;;;;;;2.10;1.00;;;;;;;19.07;99.98;98839.31;5004509;28;20112;-68
2022/07/04 01:13:21;;;;;;;2.83;0.90;;;;;;;19.03;100.00;98847.22;5013399;28;20036;-68
2022/07/04 01:15:47;;;;;;;1.88;1.00;;;;;;;19.10;100.00;98868.13;5012708;28;20029;-68
2022/07/04 01:18:13;;;;;;;2.80;1.00;;;;;;;18.83;100.00;98827.81;5008887;28;20104;-68
2022/07/04 01:20:38;;;;;;;1.40;0.90;;;;;;;19.11;99.63;98870.63;5006912;28;20479;-68
2022/07/04 01:23:04;;;;;;;4.97;1.23;;;;;;;19.11;99.72;98869.81;5013236;28;20030;-68
2022/07/04 01:25:30;;;;;;;2.47;1.02;;;;;;;19.09;100.00;98870.06;5012959;28;20448;-68
2022/07/04 01:27:56;;;;;;;2.30;1.27;;;;;;;19.08;100.00;98873.88;4999448;28;20037;-68
2022/07/04 01:30:21;;;;;;;1.70;0.95;;;;;;;19.03;100.00;98871.09;5000899;28;20030;-68
2022/07/04 01:32:46;;;;;;;2.47;1.02;;;;;;;19.02;100.00;98866.66;5011283;28;20117;-68
2022/07/04 01:35:12;;;;;;;4.35;1.30;;;;;;;18.94;100.00;98867.13;5011175;28;20466;-68
2022/07/04 01:37:38;;;;;;;1.67;1.00;;;;;;;18.90;100.00;98874.22;5007911;28;20026;-68
2022/07/04 01:40:04;;;;;;;7.05;1.10;;;;;;;18.85;100.00;98872.25;5006738;28;20030;-68
2022/07/04 01:42:29;;;;;;;4.97;1.38;;;;;;;18.79;100.00;98874.09;5010743;28;20100;-68
2022/07/04 01:44:54;;;;;;;4.07;1.38;;;;;;;18.83;100.00;98879.88;5012697;28;20022;-68
2022/07/04 01:47:20;;;;;;;3.80;1.15;;;;;;;18.56;100.00;98855.97;5006132;28;20076;-68
2022/07/04 01:49:45;;;;;;;1.45;1.00;;;;;;;18.68;100.00;98882.41;5005537;28;20448;-68
2022/07/04 01:52:10;;;;;;;3.42;1.13;;;;;;;18.59;100.00;98869.16;5006596;28;20025;-68
2022/07/04 01:54:36;;;;;;;1.50;0.98;;;;;;;18.56;100.00;98880.63;5011975;28;20030;-68
2022/07/04 01:57:01;;;;;;;2.13;1.08;;;;;;;18.51;100.00;98888.75;5007586;28;20026;-68
2022/07/04 02:02:10;;;;;;;2.92;1.02;;;;;;;18.48;100.00;98896.69;5012136;28;20037;-68
2022/07/04 02:04:35;;;;;;;1.20;1.10;;;;;;;18.48;100.00;98899.41;5007234;28;20019;-68
2022/07/04 02:07:01;;;;;;;2.58;1.10;;;;;;;18.49;100.00;98901.06;5009997;28;20492;-68
2022/07/04 02:09:28;;;;;;;1.33;1.00;;;;;;;18.40;100.00;98898.75;5008470;28;20034;-68
2022/07/04 02:14:36;;;;;;;2.80;0.98;;;;;;;18.33;100.00;98903.56;5013039;28;20060;-68
2022/07/04 02:17:02;;;;;;;1.77;1.20;;;;;;;18.20;100.00;98894.88;5012941;28;20025;-68
2022/07/04 02:19:27;;;;;;;4.35;1.23;;;;;;;18.10;100.00;98904.63;5006231;28;20030;-68
2022/07/04 02:21:53;;;;;;;2.33;1.20;;;;;;;18.04;100.00;98905.59;5010132;28;20571;-68
2022/07/04 02:24:19;;;;;;;3.22;1.00;;;;;;;17.99;100.00;98908.25;5012456;28;20040;-68
2022/07/04 02:26:45;;;;;;;5.70;1.30;;;;;;;17.95;100.00;98915.31;5010462;28;20022;-68
2022/07/04 02:29:10;;;;;;;8.18;1.45;;;;;;;17.88;100.00;98911.91;5010448;28;20118;-68
2022/07/04 02:31:36;;;;;;;2.25;1.10;;;;;;;17.81;100.00;98916.72;5006611;28;20117;-68
2022/07/04 02:34:01;;;;;;;4.55;1.40;;;;;;;17.75;100.00;98915.75;5012501;28;20529;-68
2022/07/04 02:36:26;;;;;;;3.97;1.30;;;;;;;17.70;100.00;98921.16;5004401;28;20022;-68
2022/07/04 02:38:51;;;;;;;2.25;1.30;;;;;;;17.72;100.00;98919.00;5011326;28;20113;-68
2022/07/04 02:41:17;;;;;;;5.93;1.70;;;;;;;17.66;100.00;98922.72;5013586;28;20053;-68
2022/07/04 02:43:42;;;;;;;3.00;1.80;;;;;;;17.66;100.00;98931.75;5011047;28;20049;-68
2022/07/04 02:46:07;;;;;;;3.97;1.15;;;;;;;17.66;100.00;98939.16;5012230;28;20072;-68
2022/07/04 02:48:32;;;;;;;3.38;1.50;;;;;;;17.66;100.00;98930.94;5007320;28;20478;-68
2022/07/04 02:50:57;;;;;;;3.65;1.40;;;;;;;17.63;100.00;98939.63;5008111;28;20025;-68
2022/07/04 02:53:23;;;;;;;2.33;1.30;;;;;;;17.40;100.00;98911.31;5011412;28;20026;-68
2022/07/04 02:55:48;;;;;;;3.72;1.40;;;;;;;17.55;100.00;98935.38;5012377;28;20026;-68
2022/07/04 02:58:13;;;;;;;4.95;1.20;;;;;;;17.46;100.00;98942.31;5010541;28;20026;-68
2022/07/04 03:00:39;;;;;;;3.58;1.33;;;;;;;17.37;100.00;98943.78;5005277;28;20087;-68
2022/07/04 03:03:04;;;;;;;3.47;1.35;;;;;;;17.31;100.00;98951.88;5006504;28;20021;-68
2022/07/04 03:05:32;;;;;;;4.60;1.70;;;;;;;17.29;100.00;98950.47;5003036;28;20144;-68
2022/07/04 03:07:57;;;;;;;1.45;1.13;;;;;;;17.25;100.00;98952.88;5008028;28;20057;-68
2022/07/04 03:10:23;;;;;;;3.05;1.40;;;;;;;17.18;100.00;98946.69;5009409;28;20453;-68
2022/07/04 03:12:48;;;;;;;2.40;1.48;;;;;;;17.14;100.00;98944.72;5012414;28;20026;-68
2022/07/04 03:15:14;;;;;;;5.03;1.40;;;;;;;17.20;100.00;98955.50;5038893;22;20558;-64
2022/07/04 03:17:39;;;;;;;4.18;1.35;;;;;;;17.14;100.00;98959.22;5028464;28;20476;-64
2022/07/04 03:20:05;;;;;;;3.55;1.27;;;;;;;17.06;100.00;98954.13;5023336;28;20051;-64
2022/07/04 03:22:31;;;;;;;4.05;1.30;;;;;;;17.08;100.00;98968.38;5031475;28;20038;-64
2022/07/04 03:24:56;;;;;;;2.22;1.40;;;;;;;17.11;100.00;98973.38;4989059;28;20048;-64
2022/07/04 03:27:22;;;;;;;4.20;2.13;;;;;;;17.10;100.00;98960.75;4995001;28;20025;-64
2022/07/04 03:29:47;;;;;;;2.33;1.48;;;;;;;17.11;100.00;98962.44;4999752;28;20124;-64
2022/07/04 03:32:12;;;;;;;2.88;1.42;;;;;;;17.06;100.00;98965.88;5004621;28;20026;-64
2022/07/04 03:34:38;;;;;;;2.45;1.25;;;;;;;17.05;100.00;98968.84;5006434;28;20087;-64
2022/07/04 03:37:03;;;;;;;3.15;1.40;;;;;;;17.04;100.00;98976.22;5003253;28;20033;-64
2022/07/04 03:39:29;;;;;;;2.40;1.58;;;;;;;17.02;100.00;98977.53;4996327;28;20061;-64
2022/07/04 03:41:54;;;;;;;2.92;1.60;;;;;;;16.97;100.00;98988.38;5003678;28;20053;-64
2022/07/04 03:44:19;;;;;;;2.20;1.50;;;;;;;16.91;100.00;98995.63;4997965;28;20049;-64
2022/07/04 03:46:45;;;;;;;5.28;1.35;;;;;;;16.91;100.00;98992.06;5005267;28;20037;-65
2022/07/04 03:49:10;;;;;;;3.25;1.58;;;;;;;16.91;100.00;98990.16;5001721;28;20036;-65
2022/07/04 03:51:36;;;;;;;4.05;1.67;;;;;;;16.93;100.00;98995.41;5001192;28;20465;-65
2022/07/04 03:54:01;;;;;;;3.03;1.50;;;;;;;16.98;100.00;98996.34;4998434;28;20117;-64
2022/07/04 03:56:26;;;;;;;3.25;1.30;;;;;;;16.99;100.00;99003.44;5031014;28;20080;-64
2022/07/04 03:58:53;;;;;;;2.17;1.50;;;;;;;16.85;100.00;98969.28;4996442;28;20030;-64
2022/07/04 04:01:19;;;;;;;5.78;1.40;;;;;;;17.03;100.00;98999.19;4994308;28;20026;-64
2022/07/04 04:06:30;;;;;;;2.88;1.45;;;;;;;17.12;100.00;98994.16;4999174;28;20036;-64
2022/07/04 04:08:56;;;;;;;1.88;1.10;;;;;;;17.15;100.00;98990.13;4999715;28;20022;-64
2022/07/04 04:11:22;;;;;;;3.50;1.60;;;;;;;17.18;100.00;98990.44;5004606;28;20030;-65
2022/07/04 04:13:47;;;;;;;4.70;1.52;;;;;;;17.18;100.00;99001.38;4998276;28;20033;-65
2022/07/04 04:16:12;;;;;;;6.10;1.65;;;;;;;17.27;100.00;99001.84;4998801;28;20037;-65
2022/07/04 04:18:38;;;;;;;6.15;1.70;;;;;;;17.29;100.00;99000.53;4995739;28;20126;-64
2022/07/04 04:21:04;;;;;;;4.97;1.67;;;;;;;17.35;100.00;99000.66;5001065;28;20030;-64
2022/07/04 04:23:31;;;;;;;3.22;1.40;;;;;;;17.37;100.00;98990.28;5027372;28;20030;-64
2022/07/04 04:25:56;;;;;;;2.67;1.63;;;;;;;17.36;100.00;98992.19;4997409;28;20026;-64
2022/07/04 04:28:23;;;;;;;2.78;2.05;;;;;;;17.26;100.00;98997.44;5024469;28;20041;-64
2022/07/04 04:30:50;;;;;;;3.45;1.90;;;;;;;17.49;100.00;98999.28;4997567;28;20019;-64
2022/07/04 04:33:15;;;;;;;2.85;1.92;;;;;;;17.66;100.00;98999.34;5028908;28;20030;-63
2022/07/04 04:35:40;;;;;;;3.53;1.50;;;;;;;17.63;100.00;99005.28;4997436;28;20025;-63
2022/07/04 04:38:06;;;;;;;7.55;1.98;;;;;;;17.55;100.00;99006.50;5018272;28;20056;-63
2022/07/04 04:40:31;;;;;;;2.70;1.75;;;;;;;17.57;100.00;99015.31;5001417;28;20025;-63
2022/07/04 04:42:56;;;;;;;4.43;1.95;;;;;;;17.72;100.00;99006.56;4989987;28;20038;-63
2022/07/04 04:45:22;;;;;;;5.95;2.40;;;;;;;17.82;100.00;99028.69;5005921;28;20017;-64
2022/07/04 04:47:47;;;;;;;7.03;2.53;;;;;;;17.90;100.00;99024.72;4994181;28;20027;-64
2022/07/04 04:50:14;;;;;;;6.57;2.20;;;;;;;17.90;100.00;99038.41;4995656;28;20471;-64
2022/07/04 04:52:42;;;;;;;7.85;1.80;;;;;;;18.00;100.00;99040.47;5001502;28;20037;-64
2022/07/04 04:55:09;;;;;;;6.57;2.00;;;;;;;17.95;100.00;99050.28;5002843;28;20061;-64
2022/07/04 04:57:34;;;;;;;4.95;1.63;;;;;;;17.93;100.00;99059.81;5004333;28;20021;-64
2022/07/04 05:00:00;;;;;;;5.00;1.63;;;;;;;17.90;100.00;99057.56;4997092;28;20038;-64
2022/07/04 05:02:26;;;;;;;3.13;1.30;;;;;;;17.98;100.00;99059.09;4994068;28;20027;-64
2022/07/04 05:04:52;;;;;;;4.00;1.40;;;;;;;18.15;100.00;99060.75;4999158;28;20049;-64
2022/07/04 05:07:18;;;;;;;5.38;1.70;;;;;;;18.33;100.00;99065.19;4999307;28;20072;-64
2022/07/04 05:09:44;;;;;;;4.68;1.52;;;;;;;18.49;100.00;99066.28;5001188;28;20072;-64
2022/07/04 05:12:09;;;;;;;5.18;1.50;;;;;;;18.69;100.00;99070.44;4996317;28;20061;-64
2022/07/04 05:14:34;;;;;;;4.18;1.23;;;;;;;18.88;100.00;99073.78;4993325;28;20088;-64
2022/07/04 05:17:00;;;;;;;4.50;1.60;;;;;;;18.87;100.00;99067.47;4996487;28;20068;-64
2022/07/04 05:19:25;;;;;;;2.33;1.73;;;;;;;18.92;100.00;99063.97;4999022;28;20113;-64
2022/07/04 05:21:51;;;;;;;7.72;2.33;;;;;;;18.88;100.00;99066.38;4997220;28;20113;-64
2022/07/04 05:24:16;;;;;;;3.03;1.60;;;;;;;18.90;100.00;99066.97;4997670;28;20109;-65
2022/07/04 05:26:42;;;;;;;5.80;1.77;;;;;;;18.80;100.00;99073.09;5001921;28;20014;-64
2022/07/04 05:29:08;;;;;;;6.55;1.27;;;;;;;18.88;100.00;99066.38;5009543;28;20034;-64
2022/07/04 05:31:33;;;;;;;4.07;1.50;;;;;;;19.07;100.00;99063.34;5004583;28;20025;-64
2022/07/04 05:33:59;;;;;;;2.33;1.25;;;;;;;19.31;96.15;99072.19;5033973;28;20034;-64
2022/07/04 05:36:25;;;;;;;6.45;1.20;;;;;;;19.56;96.45;99074.44;5008868;28;20425;-64
2022/07/04 05:38:50;;;;;;;1.55;1.05;;;;;;;19.80;93.47;99075.84;5003518;28;20041;-64
2022/07/04 05:41:16;;;;;;;3.83;1.50;;;;;;;19.93;89.08;99069.13;5002626;28;20478;-64
2022/07/04 05:43:41;;;;;;;2.92;1.20;;;;;;;20.31;85.66;99065.41;5001419;28;20030;-63
2022/07/04 05:46:07;;;;;;;5.03;1.13;;;;;;;20.75;83.54;99062.50;5009253;28;20026;-64
2022/07/04 05:48:32;;;;;;;4.85;1.33;;;;;;;21.10;77.79;99055.59;5002288;28;20046;-64
2022/07/04 05:50:58;;;;;;;3.67;1.42;;;;;;;20.98;78.53;99061.28;5012769;28;20025;-64
2022/07/04 05:53:23;;;;;;;4.03;1.55;;;;;;;21.12;77.00;99063.59;5001069;28;20026;-64
2022/07/04 05:55:48;;;;;;;4.50;1.75;;;;;;;21.28;76.70;99059.00;5001650;28;20030;-64
2022/07/04 05:58:14;;;;;;;5.28;1.50;;;;;;;21.33;72.73;99061.78;5031337;28;20113;-64
2022/07/04 06:00:40;;;;;;;4.47;1.30;;;;;;;21.63;73.27;99053.66;5005989;28;20045;-64
2022/07/04 06:03:06;;;;;;;4.00;1.13;;;;;;;21.63;70.74;99063.84;5008368;28;20022;-64
2022/07/04 06:05:32;;;;;;;3.80;1.38;;;;;;;22.19;68.90;99054.94;4996831;28;20493;-64
2022/07/04 06:07:57;;;;;;;4.47;1.15;;;;;;;22.61;65.92;99062.97;5003463;28;20569;-64
2022/07/04 06:10:23;;;;;;;5.10;1.30;;;;;;;22.84;63.71;99050.53;4994968;28;20023;-64
2022/07/04 06:12:48;;;;;;;6.97;1.48;;;;;;;22.76;63.08;99057.44;5005803;28;20772;-64
2022/07/04 06:15:15;;;;;;;1.77;1.20;;;;;;;23.00;61.90;99064.34;4997782;28;20118;-64
2022/07/04 06:17:40;;;;;;;5.90;0.90;;;;;;;22.93;60.89;99062.66;4999930;28;20025;-64
2022/07/04 06:20:06;;;;;;;3.17;1.30;;;;;;;23.00;61.02;99056.06;5004801;28;20033;-64
2022/07/04 06:22:42;;;;;;;2.72;1.27;;;;;;;22.91;60.48;99059.34;5001740;28;20061;-64
2022/07/04 06:25:16;;;;;;;3.45;1.00;;;;;;;23.03;62.43;99067.38;5030625;28;20034;-64
2022/07/04 06:27:46;;;;;;;4.22;1.10;;;;;;;23.01;63.84;99060.50;5021159;28;20125;-64
2022/07/04 06:30:12;;;;;;;3.05;1.10;;;;;;;23.48;62.71;99060.06;5008746;28;20065;-64
2022/07/04 06:32:45;;;;;;;3.05;1.08;;;;;;;23.74;61.03;99046.19;4999791;28;20038;-64
2022/07/04 06:37:54;;;;;;;4.28;1.15;;;;;;;23.60;59.81;99054.22;4999765;28;20485;-64
2022/07/04 06:40:20;;;;;;;4.05;1.27;;;;;;;23.36;61.51;99052.09;5001081;28;20030;-64
2022/07/04 06:42:45;;;;;;;3.83;1.17;;;;;;;23.50;61.75;99052.34;4999138;28;20465;-64
2022/07/04 06:45:10;;;;;;;1.48;0.90;;;;;;;23.58;62.79;99051.75;4999434;28;20465;-64
2022/07/04 06:47:36;;;;;;;3.80;1.30;;;;;;;23.97;62.17;99056.56;4999020;28;20057;-64
2022/07/04 06:50:01;;;;;;;2.28;1.08;;;;;;;24.64;57.53;99053.34;4997186;28;20032;-64
2022/07/04 06:52:27;;;;;;;6.75;0.93;;;;;;;25.32;55.80;99047.69;4997172;28;20049;-64
2022/07/04 06:54:52;;;;;;;2.00;1.10;;;;;;;25.20;55.55;99055.56;4997832;28;20053;-64
2022/07/04 06:57:18;;;;;;;4.03;1.00;;;;;;;25.52;54.06;99045.81;5003430;28;20029;-64
2022/07/04 06:59:43;;;;;;;1.15;0.80;;;;;;;26.09;53.05;99054.22;4993949;28;20030;-64
2022/07/04 07:02:08;;;;;;;3.28;1.20;;;;;;;25.63;52.27;99046.50;4993240;28;20517;-64
2022/07/04 07:04:34;;;;;;;4.90;1.08;;;;;;;25.50;54.00;99057.19;4998672;28;20041;-64
2022/07/04 07:06:59;;;;;;;5.45;1.20;;;;;;;26.89;50.16;99040.16;5000046;28;20076;-64
2022/07/04 07:09:25;;;;;;;2.03;1.02;;;;;;;26.33;49.58;99049.44;5036837;28;20034;-64
2022/07/04 07:11:50;;;;;;;4.10;0.88;;;;;;;26.00;49.44;99043.81;4995550;28;20026;-64
2022/07/04 07:14:15;;;;;;;0.90;0.75;;;;;;;26.30;49.02;99047.22;4997251;28;20034;-64
2022/07/04 07:16:41;;;;;;;2.30;1.00;;;;;;;24.77;51.20;99051.84;4996471;28;20061;-64
2022/07/04 07:19:06;;;;;;;4.93;1.15;;;;;;;25.38;50.84;99045.69;5027186;28;20053;-64
2022/07/04 07:21:32;;;;;;;2.30;1.10;;;;;;;26.82;49.00;99036.13;4999406;28;20026;-64
2022/07/04 07:23:57;;;;;;;3.50;1.00;;;;;;;26.39;47.56;99045.44;4999462;28;20057;-64
2022/07/04 07:26:22;;;;;;;4.65;0.90;;;;;;;26.28;48.45;99049.50;5002530;28;20496;-64
2022/07/04 07:28:48;;;;;;;1.63;0.82;;;;;;;26.41;48.25;99040.41;4998869;28;20026;-64
2022/07/04 07:31:14;;;;;;;7.03;1.33;;;;;;;26.73;49.30;99035.22;5007101;28;20037;-64
2022/07/04 07:33:39;;;;;;;2.83;0.90;;;;;;;26.88;48.76;99034.91;5013570;22;20022;-71
2022/07/04 07:36:05;;;;;;;2.40;0.95;;;;;;;26.15;49.60;99014.22;5062705;28;20040;-71
2022/07/04 07:38:30;;;;;;;4.25;1.20;;;;;;;25.29;51.88;99044.69;5063168;28;20062;-73
2022/07/04 07:40:55;;;;;;;4.85;1.10;;;;;;;25.09;51.58;99029.09;5063506;28;20021;-73
2022/07/04 07:43:21;;;;;;;5.95;1.23;;;;;;;25.12;52.50;99040.41;5060707;28;20024;-72
2022/07/04 07:45:46;;;;;;;6.63;1.15;;;;;;;25.00;53.15;99042.75;5057425;28;20017;-74
2022/07/04 07:48:11;;;;;;;4.55;1.20;;;;;;;24.68;54.68;99033.09;5046246;28;20120;-73
2022/07/04 07:50:37;;;;;;;4.75;1.20;;;;;;;24.43;54.32;99020.28;5048202;28;20017;-75
2022/07/04 07:53:02;;;;;;;3.67;1.30;;;;;;;24.24;53.42;99003.56;5042137;28;20028;-76
2022/07/04 07:55:27;;;;;;;4.40;0.98;;;;;;;24.60;52.43;99030.13;5042236;28;20025;-76
2022/07/04 07:57:53;;;;;;;2.28;1.00;;;;;;;24.73;53.64;99009.25;5042113;28;20055;-74
2022/07/04 08:00:18;;;;;;;3.47;1.20;;;;;;;24.86;52.43;99022.41;5045775;28;20033;-73
2022/07/04 08:05:28;;;;;;;2.92;1.30;;;;;;;25.44;51.48;99018.75;5041646;28;20426;-73
2022/07/04 08:07:53;;;;;;;4.82;1.65;;;;;;;25.22;52.12;99019.28;5047218;28;20037;-72
2022/07/04 08:10:18;;;;;;;4.95;1.75;;;;;;;25.38;52.27;99022.72;5042047;28;20033;-72
2022/07/04 08:12:43;;;;;;;2.95;1.40;;;;;;;25.95;50.44;99018.91;5046516;28;20090;-75
2022/07/04 08:15:09;;;;;;;4.70;1.20;;;;;;;26.24;50.18;99027.06;5045678;28;20029;-72
2022/07/04 08:17:35;;;;;;;5.10;1.00;;;;;;;25.38;51.58;99011.63;5030799;28;20025;-73
2022/07/04 08:20:01;;;;;;;1.88;1.13;;;;;;;25.54;51.23;99019.47;5042078;28;20104;-73
2022/07/04 08:22:27;;;;;;;2.78;1.20;;;;;;;25.51;50.76;99020.03;5038215;28;20029;-74
2022/07/04 08:24:52;;;;;;;5.38;0.93;;;;;;;26.11;50.14;99013.97;5044288;28;20035;-71
2022/07/04 08:27:17;;;;;;;3.95;1.00;;;;;;;26.07;51.18;99012.94;5044552;28;20039;-72
2022/07/04 08:29:43;;;;;;;4.38;1.10;;;;;;;26.58;49.06;99006.56;5037328;28;20068;-75
2022/07/04 08:32:08;;;;;;;1.83;1.10;;;;;;;27.13;47.86;99000.28;5042358;28;20086;-76
2022/07/04 08:34:34;;;;;;;4.25;1.10;;;;;;;27.97;45.37;99002.72;5039692;28;20067;-72
2022/07/04 08:37:00;;;;;;;2.70;0.93;;;;;;;29.53;43.42;99001.19;5041320;28;20495;-73
2022/07/04 08:39:25;;;;;;;3.25;0.90;;;;;;;29.85;41.64;98986.84;5037988;28;20036;-74
2022/07/04 08:41:55;;;;;;;4.68;1.20;;;;;;;28.83;44.24;98995.34;5040881;28;20021;-74
2022/07/04 08:44:23;;;;;;;4.82;1.27;;;;;;;29.13;43.97;98987.28;5045815;28;20021;-73
2022/07/04 08:46:52;;;;;;;8.07;0.93;;;;;;;29.54;43.88;98995.31;5042031;28;20024;-73
2022/07/04 08:49:21;;;;;;;4.35;0.93;;;;;;;29.54;43.18;98986.94;5041318;28;20029;-70
2022/07/04 08:51:49;;;;;;;7.38;1.40;;;;;;;29.37;43.64;98995.25;5042525;28;20022;-71
2022/07/04 08:59:48;;;;;;;2.22;0.95;;;;;;;29.35;43.89;98990.00;5044672;28;20032;-75
2022/07/04 09:02:16;;;;;;;5.22;1.08;;;;;;;29.07;42.99;98991.38;5047576;28;20621;-76
2022/07/04 09:04:44;;;;;;;5.45;1.27;;;;;;;27.82;44.34;98989.16;5047853;28;20278;-77
2022/07/04 09:07:12;;;;;;;4.00;1.27;;;;;;;29.03;42.72;98989.22;5045617;28;20028;-77
2022/07/04 09:09:39;;;;;;;7.30;1.35;;;;;;;30.05;40.69;98996.56;5050323;28;20028;-71
2022/07/04 09:12:05;;;;;;;4.80;1.10;;;;;;;30.71;38.34;98995.53;5050875;28;20040;-77
2022/07/04 09:14:31;;;;;;;6.40;1.10;;;;;;;30.55;38.77;99004.44;5067575;22;20053;-62
2022/07/04 09:16:56;;;;;;;5.97;1.20;;;;;;;30.73;38.27;99007.16;5026844;28;20085;-61
2022/07/04 09:19:23;;;;;;;3.72;1.17;;;;;;;30.84;38.56;99010.44;5031462;28;20187;-66
2022/07/04 09:21:49;;;;;;;4.43;0.88;;;;;;;30.80;39.47;99010.28;5019184;28;20029;-61
2022/07/04 09:24:15;;;;;;;4.20;0.98;;;;;;;31.40;38.35;99017.66;5014005;28;20056;-63
2022/07/04 09:26:44;;;;;;;2.97;1.00;;;;;;;32.12;36.54;99014.91;5010487;28;20041;-61
2022/07/04 09:29:10;;;;;;;1.80;1.00;;;;;;;30.84;36.93;99019.69;5015285;28;20040;-61
2022/07/04 09:31:37;;;;;;;8.52;1.00;;;;;;;30.26;39.52;99016.28;5007443;28;20120;-61
2022/07/04 09:34:05;;;;;;;3.60;0.95;;;;;;;30.74;38.97;99018.03;5029867;28;20072;-61
2022/07/04 09:36:39;;;;;;;1.90;0.80;;;;;;;31.61;37.48;99022.50;5014351;28;20033;-61
2022/07/04 09:39:36;;;;;;;2.65;0.90;;;;;;;33.36;35.42;99028.22;5017755;28;20030;-60
2022/07/04 09:42:03;;;;;;;6.15;0.77;;;;;;;35.04;33.03;99022.03;5004207;28;20386;-60
2022/07/04 09:44:48;;;;;;;1.17;0.70;;;;;;;36.21;30.95;99019.69;5010516;28;20033;-60
2022/07/04 09:47:27;;;;;;;1.85;0.60;;;;;;;37.02;28.38;99016.88;5007068;28;20021;-61
2022/07/04 09:50:03;;;;;;;3.58;1.10;;;;;;;37.90;29.00;99026.38;5007247;28;20124;-61
2022/07/04 09:52:29;;;;;;;1.88;0.80;;;;;;;37.79;28.04;99016.97;5008616;28;20061;-61
2022/07/04 09:55:05;;;;;;;4.93;0.80;;;;;;;38.34;28.75;99028.63;5008661;28;20030;-62
2022/07/04 09:57:31;;;;;;;3.55;0.70;;;;;;;38.75;26.99;99032.38;5009302;28;20412;-61
2022/07/04 10:00:16;;;;;;;2.67;0.90;;;;;;;39.82;26.00;99031.75;5014820;28;20079;-62
2022/07/04 10:02:41;;;;;;;3.13;0.98;;;;;;;39.39;24.82;99031.44;5019203;28;20030;-63
2022/07/04 10:05:07;;;;;;;2.40;1.00;;;;;;;38.80;24.71;99023.56;5006714;28;20048;-62
2022/07/04 10:07:43;;;;;;;2.08;0.90;;;;;;;38.82;24.86;99028.00;5009032;28;20018;-62
2022/07/04 10:10:26;;;;;;;5.13;1.30;;;;;;;37.22;27.18;99025.28;5009597;28;20042;-63
2022/07/04 10:12:53;;;;;;;1.02;0.60;;;;;;;37.42;27.08;99031.69;5011452;28;20443;-63
2022/07/04 10:15:19;;;;;;;2.20;0.60;;;;;;;36.20;28.42;99015.22;5008850;28;20116;-63
2022/07/04 10:17:45;;;;;;;2.08;0.70;;;;;;;34.65;29.91;99021.78;5010943;28;20029;-62
2022/07/04 10:20:14;;;;;;;2.38;0.75;;;;;;;34.45;32.25;99023.63;5009493;28;20029;-63
2022/07/04 10:22:40;;;;;;;1.58;0.70;;;;;;;35.14;30.89;99020.72;5008364;28;20022;-61
2022/07/04 10:25:07;;;;;;;2.97;0.93;;;;;;;35.78;29.77;99013.84;5010229;28;20444;-62
2022/07/04 10:27:33;;;;;;;3.88;1.10;;;;;;;37.04;28.40;99024.97;5022932;28;20080;-61
2022/07/04 10:30:02;;;;;;;2.70;0.80;;;;;;;37.92;27.68;99029.66;5007361;28;20097;-67
2022/07/04 10:32:30;;;;;;;2.78;1.00;;;;;;;36.80;27.53;99028.94;5006843;28;20048;-63
2022/07/04 10:34:55;;;;;;;1.13;0.70;;;;;;;37.00;28.38;99033.34;5007200;28;20791;-63
2022/07/04 10:37:21;;;;;;;1.42;0.68;;;;;;;36.62;28.45;99025.75;5008703;28;20076;-63
2022/07/04 10:39:47;;;;;;;2.53;0.90;;;;;;;37.75;26.86;99024.53;5005150;28;20596;-63
2022/07/04 10:42:26;;;;;;;1.50;0.85;;;;;;;34.56;30.82;99031.50;5010501;28;20033;-63
2022/07/04 10:44:52;;;;;;;3.25;0.80;;;;;;;33.27;34.12;99033.09;5018042;28;20123;-63
2022/07/04 10:47:27;;;;;;;2.10;0.80;;;;;;;33.60;33.12;99027.41;5010155;28;20082;-63
2022/07/04 10:49:53;;;;;;;3.20;0.80;;;;;;;34.97;30.88;99024.66;5005586;28;20041;-63
2022/07/04 10:52:18;;;;;;;3.60;0.98;;;;;;;34.96;31.33;99028.66;5010297;28;20108;-62
2022/07/04 10:54:45;;;;;;;1.63;0.82;;;;;;;35.30;30.23;99024.34;5012590;28;20116;-63
2022/07/04 10:57:11;;;;;;;2.05;0.80;;;;;;;35.87;30.80;99013.69;5011292;28;20022;-63
2022/07/04 10:59:38;;;;;;;4.50;0.90;;;;;;;34.85;30.68;99019.94;5017625;28;20030;-63
2022/07/04 11:02:04;;;;;;;4.83;0.83;;;;;;;33.52;32.33;99015.09;5006372;28;20179;-62
2022/07/04 11:04:51;;;;;;;2.40;0.80;;;;;;;33.75;33.34;99018.28;5010678;28;20371;-62
2022/07/04 11:07:41;;;;;;;1.90;0.68;;;;;;;34.76;32.39;99021.28;5007382;28;20273;-63
2022/07/04 11:12:53;;;;;;;1.80;0.88;;;;;;;35.92;28.54;99016.19;5006444;28;20053;-62
2022/07/04 11:15:28;;;;;;;1.85;0.85;;;;;;;36.07;29.93;99022.97;5000436;28;20041;-62
2022/07/04 11:18:14;;;;;;;1.08;0.60;;;;;;;36.94;27.81;99020.72;5003443;28;20022;-62
2022/07/04 11:20:47;;;;;;;5.68;0.70;;;;;;;34.89;31.05;99014.41;5007296;28;20120;-63
2022/07/04 11:23:12;;;;;;;1.45;0.70;;;;;;;35.17;29.99;99013.56;5000913;28;20033;-62
2022/07/04 11:25:45;;;;;;;1.73;0.77;;;;;;;37.32;27.93;99009.75;5002726;28;20048;-62
2022/07/04 11:28:26;;;;;;;2.58;0.70;;;;;;;36.14;29.28;98994.16;5023420;28;20547;-62
2022/07/04 11:30:52;;;;;;;4.10;0.75;;;;;;;35.59;29.31;98991.31;5031749;28;20418;-62
2022/07/04 11:33:27;;;;;;;1.52;0.70;;;;;;;35.55;29.14;98985.56;5009072;28;20469;-62
2022/07/04 11:36:08;;;;;;;2.67;1.00;;;;;;;35.03;29.76;98986.66;5007894;28;20046;-62
2022/07/04 11:39:04;;;;;;;2.30;0.70;;;;;;;35.37;29.04;98977.88;5018296;28;20033;-62
2022/07/04 11:47:12;;;;;;;1.52;0.80;;;;;;;35.26;29.54;98955.91;5010071;28;20096;-62
2022/07/04 11:49:58;;;;;;;3.28;0.60;;;;;;;35.93;29.55;98955.88;5012656;28;20389;-62
2022/07/04 11:52:28;;;;;;;2.10;0.60;;;;;;;37.01;27.71;98950.34;5004526;28;20017;-62
2022/07/04 11:54:55;;;;;;;3.40;0.90;;;;;;;37.06;28.07;98954.88;5010774;28;20030;-63